KBKL

Burke Lakefront Airport

Cleveland, Ohio, USA
METAR KBKL 170153Z 07003KT 6SM BR BKN095 01/M02 A3012 RMK AO2 SLP204 T00061017
Observed Flight Rules
Dec-17 @ 01:53 UTC (36 minutes ago) Visual Flight Rules
Wind Visibility Clouds Conditions
70° at 3 knots 6 miles
  • Broken at 9,500' AGL
  • Mist
Temperatures Readings
Current 1°C / 34°F
Dewpoint -2°C / 28°F
Humidity 81%
Altimeter 30.12" Hg
Pressure 1020.4 hPa
Elevation 184
METAR KBKL 170153Z 07003KT 6SM BR BKN095 01/M02 A3012 RMK AO2 SLP204 T00061017
Observed Flight Rules
Dec-17 @ 01:53 UTC
(36 minutes ago)
VFR
Wind Visibility
70° at 3 knots 6 miles
Clouds
  • Broken at 9,500' AGL
Conditions
  • Mist
Temperature Dewpoint
1°C / 34°F -2°C / 28°F
Humidity Altimeter Pressure
81% 30.12" Hg 1020.4 hPa